Time;durP1;ratioP1;P1;durP2;ratioP2;P2;SDS_P1;SDS_P2;PMS_P1;PMS_P2;Temp;Humidity;BMP_temperature;BMP_pressure;BME280_temperature;BME280_humidity;BME280_pressure;Samples;Min_cycle;Max_cycle;Signal;HPM_P1;HPM_P2
2022/08/22 00:00:21;;;;;;;;;6.50;5.00;;;;;22.21;51.62;101102.47;5015828;28;45459;-53
2022/08/22 00:03:15;;;;;;;;;7.75;5.25;;;;;22.17;51.73;101100.16;5016182;28;45440;-55
2022/08/22 00:06:09;;;;;;;;;7.00;5.25;;;;;22.14;51.48;101092.47;5009985;28;47276;-53
2022/08/22 00:08:56;;;;;;;;;6.25;6.25;;;;;22.15;51.26;101104.94;5015588;28;45429;-54
2022/08/22 00:11:24;;;;;;;;;6.00;5.00;;;;;22.16;51.35;101105.78;5015726;28;45298;-54
2022/08/22 00:13:59;;;;;;;;;4.75;4.25;;;;;22.15;51.43;101101.41;5015779;28;45394;-53
2022/08/22 00:16:24;;;;;;;;;5.00;5.00;;;;;22.14;51.71;101097.06;5015639;28;46350;-52
2022/08/22 00:19:00;;;;;;;;;6.00;5.00;;;;;22.04;51.45;101072.28;5015368;28;45436;-55
2022/08/22 00:21:37;;;;;;;;;4.00;4.00;;;;;22.14;51.31;101087.03;5015424;28;45483;-53
2022/08/22 00:24:22;;;;;;;;;6.00;6.00;;;;;22.14;51.77;101084.34;5015776;28;45433;-55
2022/08/22 00:27:16;;;;;;;;;5.25;4.75;;;;;22.08;51.66;101071.63;5015370;28;46099;-53
2022/08/22 00:29:48;;;;;;;;;4.75;4.00;;;;;22.11;51.56;101068.47;5013311;28;45452;-54
2022/08/22 00:32:13;;;;;;;;;5.00;5.00;;;;;22.12;51.67;101069.28;5098140;27;45462;-54
2022/08/22 00:34:57;;;;;;;;;6.00;5.00;;;;;22.10;51.38;101068.69;5098655;27;45424;-51
2022/08/22 00:37:38;;;;;;;;;5.75;5.00;;;;;22.08;51.54;101065.34;5098215;27;45403;-52
2022/08/22 00:40:21;;;;;;;;;5.25;3.50;;;;;22.06;51.53;101067.47;5098394;27;45413;-53
2022/08/22 00:43:35;;;;;;;;;6.00;4.25;;;;;22.05;51.69;101066.63;5098610;27;45278;-53
2022/08/22 00:46:18;;;;;;;;;4.00;3.75;;;;;22.04;51.62;101067.69;5035674;28;45399;-51
2022/08/22 00:49:02;;;;;;;;;8.50;6.00;;;;;22.02;51.59;101069.75;5035062;28;46207;-55
2022/08/22 00:51:42;;;;;;;;;6.50;4.75;;;;;22.02;51.73;101083.31;5035017;28;45382;-56
2022/08/22 00:54:49;;;;;;;;;5.75;4.50;;;;;22.02;51.90;101077.88;5035152;28;45446;-55
2022/08/22 00:57:32;;;;;;;;;7.00;4.00;;;;;22.00;51.31;101069.16;5015518;28;45595;-52
2022/08/22 01:00:16;;;;;;;;;6.25;4.75;;;;;22.01;51.33;101075.41;5014885;28;47139;-54
2022/08/22 01:03:10;;;;;;;;;8.75;5.25;;;;;22.01;51.69;101067.28;5015033;28;45345;-54
2022/08/22 01:05:43;;;;;;;;;5.00;4.00;;;;;22.03;51.80;101071.41;5015043;28;45591;-55
2022/08/22 01:08:29;;;;;;;;;6.50;5.00;;;;;22.03;51.23;101078.72;5014504;28;45786;-54
2022/08/22 01:10:55;;;;;;;;;4.25;4.00;;;;;22.03;51.51;101076.84;5014788;28;46241;-55
2022/08/22 01:13:38;;;;;;;;;6.25;4.25;;;;;22.03;51.36;101090.38;5014924;28;45310;-54
2022/08/22 01:16:29;;;;;;;;;4.00;4.00;;;;;22.03;51.33;101081.41;5015113;28;45446;-53
2022/08/22 01:19:13;;;;;;;;;6.00;4.00;;;;;22.02;51.41;101091.44;5015296;28;45470;-54
2022/08/22 01:22:08;;;;;;;;;6.00;5.00;;;;;22.05;51.54;101084.75;5032323;28;46284;-54
2022/08/22 01:25:17;;;;;;;;;6.25;4.75;;;;;22.04;51.27;101086.66;4975233;28;45513;-55
2022/08/22 01:28:03;;;;;;;;;5.75;3.25;;;;;22.04;51.09;101083.09;4974424;28;45567;-55
2022/08/22 01:31:03;;;;;;;;;6.00;4.00;;;;;22.03;50.74;101084.13;4975465;28;45489;-55
2022/08/22 01:33:52;;;;;;;;;5.00;4.50;;;;;22.02;50.73;101077.06;4978123;28;46055;-55
2022/08/22 01:36:48;;;;;;;;;6.00;3.00;;;;;21.99;50.63;101072.06;4994910;28;45376;-54
2022/08/22 01:39:25;;;;;;;;;6.50;3.75;;;;;21.96;51.03;101067.09;4994541;28;45374;-54
2022/08/22 01:41:57;;;;;;;;;3.00;3.00;;;;;21.93;50.61;101060.22;4994892;28;45602;-55
2022/08/22 01:44:31;;;;;;;;;3.25;2.75;;;;;21.90;50.90;101063.34;4994652;28;46248;-55
2022/08/22 01:47:11;;;;;;;;;4.25;4.25;;;;;21.84;50.71;101059.63;4994649;28;45271;-55
2022/08/22 01:49:45;;;;;;;;;6.75;3.00;;;;;21.86;50.99;101062.09;4994717;28;45480;-56
2022/08/22 01:52:31;;;;;;;;;4.00;4.00;;;;;21.69;50.60;101031.94;4994600;28;45559;-55
2022/08/22 01:55:31;;;;;;;;;4.50;3.00;;;;;21.67;50.67;101037.59;4994308;28;46188;-54
2022/08/22 01:58:02;;;;;;;;;5.00;4.50;;;;;21.77;50.48;101052.56;4994538;28;45440;-53
2022/08/22 02:00:33;;;;;;;;;4.25;3.00;;;;;21.72;51.05;101063.19;5023169;27;45402;-55
2022/08/22 02:03:19;;;;;;;;;7.00;4.00;;;;;21.72;50.84;101063.19;5097554;27;45370;-51
2022/08/22 02:05:52;;;;;;;;;4.00;3.25;;;;;21.70;50.87;101055.28;5097058;27;46299;-54
2022/08/22 02:08:55;;;;;;;;;6.25;4.75;;;;;21.70;50.74;101071.53;5097374;27;45310;-53
2022/08/22 02:11:39;;;;;;;;;5.00;4.00;;;;;21.68;50.82;101071.72;5086153;27;45326;-54
2022/08/22 02:14:31;;;;;;;;;4.75;3.00;;;;;21.68;50.95;101074.44;5097463;27;45190;-52
2022/08/22 02:17:12;;;;;;;;;4.75;4.00;;;;;21.57;50.73;101055.31;5097034;27;47171;-54
2022/08/22 02:19:48;;;;;;;;;3.25;3.00;;;;;21.68;50.82;101074.44;5100195;27;45327;-57
2022/08/22 02:22:29;;;;;;;;;5.00;3.75;;;;;21.67;50.69;101070.06;5100742;27;45335;-53
2022/08/22 02:25:13;;;;;;;;;4.50;3.75;;;;;21.66;50.80;101067.59;5100770;27;45271;-53
2022/08/22 02:28:04;;;;;;;;;4.00;4.00;;;;;21.64;50.83;101065.06;5082050;27;46411;-53
2022/08/22 02:30:51;;;;;;;;;6.00;3.50;;;;;21.59;50.74;101072.19;5100306;27;45332;-51
2022/08/22 02:33:41;;;;;;;;;5.25;5.00;;;;;21.56;50.73;101062.59;5100135;27;45308;-53
2022/08/22 02:36:33;;;;;;;;;3.25;3.25;;;;;21.53;50.57;101062.19;5100458;27;45655;-52
2022/08/22 02:39:25;;;;;;;;;2.75;2.75;;;;;21.46;51.00;101056.78;5099322;27;46538;-53
2022/08/22 02:42:13;;;;;;;;;3.00;3.00;;;;;21.43;50.53;101065.31;5100226;27;45315;-54
2022/08/22 02:44:47;;;;;;;;;4.75;4.00;;;;;21.41;51.09;101086.38;5100399;27;45337;-53
2022/08/22 02:47:39;;;;;;;;;7.00;5.00;;;;;21.37;51.13;101079.72;5100443;27;45552;-53
2022/08/22 02:50:10;;;;;;;;;3.25;3.00;;;;;21.37;51.24;101077.00;5081674;27;47046;-53
2022/08/22 02:52:57;;;;;;;;;5.00;3.00;;;;;21.32;50.71;101065.94;5099825;27;45280;-54
2022/08/22 02:55:39;;;;;;;;;2.25;2.25;;;;;21.29;50.74;101061.78;5100219;27;45235;-52
2022/08/22 02:58:22;;;;;;;;;6.00;4.00;;;;;21.28;50.63;101067.38;5100221;27;45454;-50
2022/08/22 03:01:10;;;;;;;;;3.00;3.00;;;;;21.27;51.10;101071.97;5099953;27;46398;-55
2022/08/22 03:03:38;;;;;;;;;6.00;2.00;;;;;21.21;51.35;101074.69;5088892;27;45388;-54
2022/08/22 03:06:25;;;;;;;;;3.25;3.00;;;;;21.14;51.43;101069.28;5081415;27;45462;-54
2022/08/22 03:09:12;;;;;;;;;7.25;3.25;;;;;21.11;51.06;101064.25;5100267;27;45333;-52
2022/08/22 03:11:42;;;;;;;;;7.25;4.50;;;;;21.08;51.68;101068.25;5099754;27;45318;-54
2022/08/22 03:14:19;;;;;;;;;4.75;4.75;;;;;21.05;51.39;101059.69;5099718;27;45310;-51
2022/08/22 03:17:04;;;;;;;;;4.00;4.00;;;;;21.00;51.52;101071.16;5099908;27;45399;-54
2022/08/22 03:19:59;;;;;;;;;2.75;2.75;;;;;20.98;51.60;101064.28;5099858;27;45272;-51
2022/08/22 03:22:36;;;;;;;;;3.25;3.25;;;;;20.90;51.75;101058.03;5099500;27;45533;-54
2022/08/22 03:25:06;;;;;;;;;2.75;2.00;;;;;20.90;51.40;101063.44;5099634;27;45355;-53
2022/08/22 03:27:41;;;;;;;;;4.25;3.25;;;;;20.91;51.54;101069.69;5099783;27;45389;-52
2022/08/22 03:30:10;;;;;;;;;4.00;4.00;;;;;20.90;51.83;101068.84;5099053;27;45249;-51
2022/08/22 03:33:04;;;;;;;;;2.00;2.00;;;;;20.91;51.59;101075.09;5099389;27;45376;-55
2022/08/22 03:35:31;;;;;;;;;6.00;3.25;;;;;20.94;51.89;101063.84;5099399;27;45452;-53
2022/08/22 03:38:28;;;;;;;;;3.25;3.00;;;;;20.92;51.64;101058.66;5099175;27;45403;-55
2022/08/22 03:41:11;;;;;;;;;4.75;2.75;;;;;20.94;51.82;101058.44;5099162;27;45622;-53
2022/08/22 03:44:14;;;;;;;;;5.00;3.25;;;;;20.91;51.62;101059.69;5099297;27;46232;-55
2022/08/22 03:47:18;;;;;;;;;5.50;2.50;;;;;20.86;51.67;101051.38;5099188;27;45434;-55
2022/08/22 03:50:09;;;;;;;;;4.25;4.25;;;;;20.92;51.60;101063.22;5099233;27;45487;-51
2022/08/22 03:53:20;;;;;;;;;4.25;3.75;;;;;20.85;51.93;101054.28;5099450;27;45471;-53
2022/08/22 03:56:22;;;;;;;;;5.50;3.25;;;;;20.87;51.61;101055.75;5035920;28;46474;-53
2022/08/22 03:59:22;;;;;;;;;4.00;3.50;;;;;20.84;51.76;101047.22;5035638;28;45297;-53
2022/08/22 04:02:26;;;;;;;;;5.00;4.00;;;;;20.82;52.31;101043.91;5036134;28;45527;-55
2022/08/22 04:05:27;;;;;;;;;3.00;3.00;;;;;20.77;52.36;101049.88;5036112;28;45483;-53
2022/08/22 04:08:07;;;;;;;;;4.00;4.00;;;;;20.72;52.70;101046.97;5035783;28;45626;-52
2022/08/22 04:10:55;;;;;;;;;3.75;3.00;;;;;20.69;52.60;101047.41;5036090;28;45416;-53
2022/08/22 04:13:37;;;;;;;;;4.00;3.00;;;;;20.64;52.88;101045.31;5036004;28;45479;-52
2022/08/22 04:16:18;;;;;;;;;7.50;5.00;;;;;20.59;52.90;101038.84;5036168;28;45320;-51
2022/08/22 04:19:15;;;;;;;;;4.00;4.00;;;;;20.53;53.17;101035.13;5035550;28;46248;-51
2022/08/22 04:22:07;;;;;;;;;5.50;3.75;;;;;20.51;53.16;101044.44;5035596;28;45449;-52
2022/08/22 04:24:54;;;;;;;;;5.00;4.00;;;;;20.48;53.51;101048.41;5035623;28;45416;-50
2022/08/22 04:27:32;;;;;;;;;3.00;3.00;;;;;20.45;53.85;101054.19;5035815;28;45537;-51
2022/08/22 04:30:04;;;;;;;;;9.00;3.00;;;;;20.44;54.14;101050.66;5035420;28;46304;-52
2022/08/22 04:32:43;;;;;;;;;4.75;4.75;;;;;20.43;53.86;101045.44;5074505;27;45459;-54
2022/08/22 04:35:35;;;;;;;;;5.25;3.50;;;;;20.40;54.01;101045.88;5098849;27;45375;-52
2022/08/22 04:38:15;;;;;;;;;4.75;4.00;;;;;20.38;54.06;101043.34;5083580;27;45657;-54
2022/08/22 04:41:24;;;;;;;;;3.50;3.50;;;;;20.38;54.40;101042.53;5098222;27;46485;-53
2022/08/22 04:44:02;;;;;;;;;5.00;3.75;;;;;20.36;54.23;101045.44;5034954;28;45414;-54
2022/08/22 04:46:40;;;;;;;;;5.50;4.00;;;;;20.36;54.10;101041.91;5035446;28;45399;-54
2022/08/22 04:49:05;;;;;;;;;5.00;3.00;;;;;20.36;54.52;101033.81;5035370;28;45510;-53
2022/08/22 04:51:50;;;;;;;;;4.50;4.00;;;;;20.34;54.46;101042.09;5035118;28;46251;-53
2022/08/22 04:54:39;;;;;;;;;3.25;3.25;;;;;20.30;54.48;101035.44;5035006;28;45408;-53
2022/08/22 04:57:13;;;;;;;;;9.50;4.25;;;;;20.35;54.49;101059.13;5035175;28;45416;-53
2022/08/22 04:59:40;;;;;;;;;4.25;4.00;;;;;20.36;55.00;101066.22;5035172;28;45452;-51
2022/08/22 05:02:09;;;;;;;;;5.75;4.75;;;;;20.28;54.78;101055.59;5034800;28;47194;-52
2022/08/22 05:04:34;;;;;;;;;5.25;3.50;;;;;20.39;54.49;101060.38;5035126;28;45255;-53
2022/08/22 05:07:07;;;;;;;;;4.25;2.75;;;;;20.41;54.38;101061.03;5034947;28;45269;-52
2022/08/22 05:09:37;;;;;;;;;5.00;5.00;;;;;20.30;54.45;101037.31;5035507;28;45317;-55
2022/08/22 05:12:10;;;;;;;;;6.25;3.25;;;;;20.43;54.41;101067.06;5034904;28;45400;-53
2022/08/22 05:14:43;;;;;;;;;5.00;5.00;;;;;20.47;54.61;101081.81;5034902;28;45227;-54
2022/08/22 05:17:14;;;;;;;;;4.50;4.50;;;;;20.51;54.29;101088.53;5035207;28;45395;-49
2022/08/22 05:19:51;;;;;;;;;3.75;3.75;;;;;20.57;54.23;101087.72;5057636;27;45998;-55
2022/08/22 05:22:22;;;;;;;;;5.75;4.00;;;;;20.55;53.82;101056.53;5097660;27;46136;-54
2022/08/22 05:24:53;;;;;;;;;5.00;3.25;;;;;20.70;53.92;101072.56;5097760;27;45313;-53
2022/08/22 05:27:26;;;;;;;;;5.50;3.00;;;;;20.75;53.83;101081.72;5098079;27;45386;-54
2022/08/22 05:30:04;;;;;;;;;5.50;5.00;;;;;20.68;53.73;101060.06;5098222;27;45380;-54
2022/08/22 05:32:45;;;;;;;;;8.00;5.00;;;;;20.86;53.33;101083.00;5097753;27;46456;-53
2022/08/22 05:35:11;;;;;;;;;7.00;4.00;;;;;20.90;53.38;101089.66;5097469;27;45432;-52
2022/08/22 05:37:47;;;;;;;;;7.75;3.50;;;;;20.96;53.18;101090.69;5097575;27;45272;-54
2022/08/22 05:40:25;;;;;;;;;5.00;5.00;;;;;20.99;53.49;101098.41;5097942;27;45396;-53
2022/08/22 05:42:53;;;;;;;;;5.75;4.00;;;;;21.00;53.53;101106.31;5079069;27;47047;-53
2022/08/22 05:45:20;;;;;;;;;5.25;3.75;;;;;21.00;53.71;101100.91;5097517;27;45234;-56
2022/08/22 05:48:02;;;;;;;;;6.25;5.00;;;;;21.05;53.29;101111.09;5097653;27;45346;-53
2022/08/22 05:50:33;;;;;;;;;10.25;5.75;;;;;21.07;53.40;101106.28;5097623;27;45238;-55
2022/08/22 05:53:02;;;;;;;;;5.25;3.00;;;;;21.07;52.87;101104.44;5097800;27;46364;-55
2022/08/22 05:55:36;;;;;;;;;4.75;4.75;;;;;21.08;52.96;101103.41;5100909;27;45248;-55
2022/08/22 05:58:12;;;;;;;;;5.75;4.25;;;;;21.09;52.50;101105.06;5101266;27;45228;-54
2022/08/22 06:00:42;;;;;;;;;8.25;4.50;;;;;21.14;53.12;101101.72;5101436;27;45293;-55
2022/08/22 06:03:30;;;;;;;;;6.50;4.75;;;;;21.18;52.36;101103.81;5100744;27;46370;-54
2022/08/22 06:06:02;;;;;;;;;6.75;3.25;;;;;21.26;52.70;101110.91;5100884;27;45522;-55
2022/08/22 06:08:33;;;;;;;;;9.25;6.00;;;;;21.33;52.42;101114.47;5100765;27;45524;-54
2022/08/22 06:11:06;;;;;;;;;6.00;4.00;;;;;21.32;52.89;101102.00;5101378;27;45185;-53
2022/08/22 06:13:48;;;;;;;;;5.50;5.00;;;;;21.42;52.39;101110.50;5100788;27;45198;-53
2022/08/22 06:16:34;;;;;;;;;6.00;4.75;;;;;21.56;52.13;101114.03;5100847;27;45300;-53
2022/08/22 06:19:02;;;;;;;;;6.00;4.75;;;;;21.66;52.00;101121.75;5100781;27;45385;-53
2022/08/22 06:21:36;;;;;;;;;6.25;4.25;;;;;21.65;52.25;101104.63;5101033;27;45410;-53
2022/08/22 06:24:07;;;;;;;;;6.25;3.75;;;;;21.67;52.42;101104.44;5100718;27;46181;-54
2022/08/22 06:26:39;;;;;;;;;7.75;4.00;;;;;21.74;52.17;101101.72;5100399;27;45289;-54
2022/08/22 06:29:07;;;;;;;;;6.50;4.75;;;;;21.77;51.30;101096.72;5100641;27;45282;-52
2022/08/22 06:31:43;;;;;;;;;6.50;4.00;;;;;21.87;51.23;101107.94;5100742;27;45515;-53
2022/08/22 06:34:19;;;;;;;;;4.00;4.00;;;;;21.86;51.28;101113.56;5100384;27;45502;-54
2022/08/22 06:36:48;;;;;;;;;5.25;5.25;;;;;21.88;51.81;101117.72;5100301;27;45473;-54
2022/08/22 06:39:24;;;;;;;;;12.75;5.00;;;;;21.95;51.16;101127.69;5100081;27;45441;-54
2022/08/22 06:42:09;;;;;;;;;4.50;4.00;;;;;22.02;51.47;101113.09;5100663;27;45240;-54
2022/08/22 06:44:43;;;;;;;;;6.75;5.00;;;;;22.09;51.18;101116.63;5099588;27;46122;-54
2022/08/22 06:47:15;;;;;;;;;7.40;5.00;;;;;22.11;50.98;101106.41;5100150;27;45350;-55
2022/08/22 06:49:43;;;;;;;;;3.50;3.50;;;;;22.14;50.89;101108.72;5100389;27;45275;-55
2022/08/22 06:52:16;;;;;;;;;5.75;5.00;;;;;22.15;51.38;101102.25;5100532;27;45191;-53
2022/08/22 06:54:46;;;;;;;;;4.50;4.50;;;;;22.24;50.60;101104.72;5099931;27;45502;-54
2022/08/22 06:57:34;;;;;;;;;7.50;5.00;;;;;22.39;50.75;101102.56;5099941;27;45577;-54
2022/08/22 07:00:05;;;;;;;;;4.00;4.00;;;;;22.50;50.14;101090.19;5099925;27;45898;-54
2022/08/22 07:02:41;;;;;;;;;7.00;5.00;;;;;22.64;49.77;101102.66;5100396;27;45424;-54
2022/08/22 07:05:27;;;;;;;;;6.75;4.50;;;;;22.63;49.23;101093.69;5098895;27;45426;-53
2022/08/22 07:07:53;;;;;;;;;6.80;5.80;;;;;22.89;49.70;101103.53;5100008;27;45370;-55
2022/08/22 07:10:20;;;;;;;;;6.00;5.00;;;;;23.10;49.00;101106.97;5099897;27;45443;-55
2022/08/22 07:12:50;;;;;;;;;6.50;5.50;;;;;23.28;48.60;101112.44;5100185;27;45442;-54
2022/08/22 07:15:18;;;;;;;;;7.25;5.00;;;;;23.41;48.26;101120.47;5099785;27;45435;-54
2022/08/22 07:17:57;;;;;;;;;5.20;3.80;;;;;23.37;48.42;101127.41;5099535;27;45358;-54
2022/08/22 07:20:30;;;;;;;;;5.00;3.80;;;;;23.28;48.54;101120.59;5099736;27;45233;-54
2022/08/22 07:23:06;;;;;;;;;8.25;5.75;;;;;23.35;48.53;101125.97;5100277;27;45369;-55
2022/08/22 07:25:35;;;;;;;;;5.40;4.60;;;;;;;;5099506;27;46303;-55
2022/08/22 07:28:18;;;;;;;;;8.40;5.60;;;;;23.54;47.96;101129.56;5099540;27;45407;-55
2022/08/22 07:30:54;;;;;;;;;8.20;5.80;;;;;23.49;47.70;101122.09;5098725;27;45355;-54
2022/08/22 07:33:55;;;;;;;;;8.50;5.00;;;;;23.63;47.61;101139.91;5099939;27;45431;-54
2022/08/22 07:36:45;;;;;;;;;6.50;5.00;;;;;23.68;47.61;101139.25;5036171;28;45944;-54
2022/08/22 07:39:26;;;;;;;;;5.80;3.00;;;;;23.70;47.83;101137.16;5035937;28;45512;-53
2022/08/22 07:41:51;;;;;;;;;6.40;4.60;;;;;23.75;47.82;101136.50;5036320;28;45613;-54
2022/08/22 07:44:21;;;;;;;;;5.50;5.00;;;;;23.85;47.01;101134.06;5036750;28;45293;-53
2022/08/22 07:46:57;;;;;;;;;6.20;4.00;;;;;24.21;46.84;101140.59;5036017;28;46241;-53
2022/08/22 07:49:29;;;;;;;;;5.20;4.60;;;;;24.57;45.67;101140.59;5036073;28;45499;-53
2022/08/22 07:52:05;;;;;;;;;3.20;3.00;;;;;24.77;45.72;101132.13;5036311;28;45541;-54
2022/08/22 07:54:49;;;;;;;;;4.20;4.00;;;;;24.75;45.50;101139.72;5036466;28;45377;-54
2022/08/22 07:57:20;;;;;;;;;6.00;4.80;;;;;24.63;45.77;101142.38;5036010;28;46178;-54
2022/08/22 07:59:50;;;;;;;;;3.40;3.20;;;;;24.49;45.53;101149.06;5035669;28;45361;-54
2022/08/22 08:02:18;;;;;;;;;3.80;3.80;;;;;24.33;46.28;101153.19;5035919;28;45597;-55
2022/08/22 08:04:47;;;;;;;;;3.40;2.80;;;;;24.17;46.40;101147.53;5036270;28;45488;-55
2022/08/22 08:07:16;;;;;;;;;6.40;4.00;;;;;24.09;46.28;101143.22;5035708;28;45423;-53
2022/08/22 08:09:48;;;;;;;;;7.60;5.00;;;;;24.08;47.08;101128.81;5035842;28;45398;-55
2022/08/22 08:12:16;;;;;;;;;7.40;5.20;;;;;24.27;45.93;101140.53;5056985;27;45305;-55
2022/08/22 08:14:44;;;;;;;;;4.75;4.50;;;;;24.46;46.19;101135.91;5099210;27;45389;-54
2022/08/22 08:17:23;;;;;;;;;7.40;5.60;;;;;24.75;45.64;101141.59;5098729;27;46966;-53
2022/08/22 08:19:49;;;;;;;;;6.80;4.80;;;;;25.42;44.51;101145.00;5098867;27;45195;-53
2022/08/22 08:22:20;;;;;;;;;7.80;4.20;;;;;25.86;42.77;101146.31;5098839;27;45369;-54
2022/08/22 08:24:48;;;;;;;;;5.40;4.60;;;;;26.40;42.69;101145.28;5099117;27;45590;-53
2022/08/22 08:30:26;;;;;;;;;5.80;5.20;;;;;28.00;40.15;101145.88;5099023;27;45437;-53
2022/08/22 08:32:56;;;;;;;;;8.20;6.00;;;;;29.38;37.91;101130.97;5098812;27;45436;-52
2022/08/22 08:35:26;;;;;;;;;4.40;3.80;;;;;29.62;37.50;101150.63;5098848;27;45411;-52
2022/08/22 08:38:07;;;;;;;;;7.80;3.60;;;;;29.69;37.88;101145.75;5097938;27;47289;-53
2022/08/22 08:40:32;;;;;;;;;6.80;4.40;;;;;30.43;35.60;101134.63;5098246;27;45319;-52
2022/08/22 08:43:33;;;;;;;;;6.00;4.25;;;;;32.09;33.55;101125.00;5097852;27;45424;-53
2022/08/22 08:46:01;;;;;;;;;3.80;3.80;;;;;33.45;31.29;101129.94;5098670;27;45239;-53
2022/08/22 08:48:57;;;;;;;;;6.60;4.00;;;;;34.03;30.90;101129.06;5098056;27;46368;-52
2022/08/22 08:52:00;;;;;;;;;2.60;1.80;;;;;37.53;26.75;101119.00;5098499;27;45506;-53
2022/08/22 08:55:02;;;;;;;;;3.40;3.40;;;;;40.12;23.09;101116.50;5098495;27;45347;-53
2022/08/22 08:58:00;;;;;;;;;2.20;2.20;;;;;40.56;22.94;101119.81;5098517;27;45301;-54
2022/08/22 09:00:43;;;;;;;;;6.40;2.60;;;;;41.82;20.98;101104.34;5098048;27;46629;-53
2022/08/22 09:03:16;;;;;;;;;3.80;3.00;;;;;43.96;19.74;101100.38;5098102;27;45350;-53
2022/08/22 09:05:48;;;;;;;;;5.00;3.40;;;;;45.43;18.73;101092.91;5098210;27;45203;-53
2022/08/22 09:08:52;;;;;;;;;2.60;2.60;;;;;46.51;16.24;101093.28;5098405;27;45404;-54
2022/08/22 09:11:24;;;;;;;;;5.00;2.00;;;;;47.80;15.36;101092.56;5079515;27;47212;-54
2022/08/22 09:14:07;;;;;;;;;5.40;2.20;;;;;48.70;14.67;101083.31;5098069;27;45302;-54
2022/08/22 09:16:54;;;;;;;;;3.60;3.60;;;;;49.53;14.42;101092.72;5098129;27;45240;-54
2022/08/22 09:19:39;;;;;;;;;4.80;2.00;;;;;50.52;13.36;101088.00;5098142;27;45272;-54
2022/08/22 09:22:50;;;;;;;;;2.20;2.20;;;;;51.14;13.47;101092.06;5096903;27;45406;-55
2022/08/22 09:25:32;;;;;;;;;2.00;2.00;;;;;51.98;12.25;101088.84;5097903;27;45247;-53
2022/08/22 09:28:07;;;;;;;;;2.80;2.20;;;;;52.45;13.71;101091.13;5097202;27;45429;-54
2022/08/22 09:31:01;;;;;;;;;4.60;2.40;;;;;52.65;14.69;101088.44;5097990;27;45574;-51
2022/08/22 09:33:47;;;;;;;;;6.00;3.80;;;;;52.57;12.24;101070.69;5034362;28;45909;-52
2022/08/22 09:36:22;;;;;;;;;3.60;2.20;;;;;53.01;11.34;101088.69;5034709;28;45463;-54
2022/08/22 09:39:13;;;;;;;;;3.20;2.00;;;;;53.57;10.80;101083.28;5034378;28;45373;-53
2022/08/22 09:42:15;;;;;;;;;4.00;1.20;;;;;53.55;12.63;101080.84;5034733;28;45392;-52
2022/08/22 09:44:55;;;;;;;;;1.80;1.80;;;;;53.29;13.71;101084.56;5033962;28;45400;-54
2022/08/22 09:47:38;;;;;;;;;3.40;1.20;;;;;52.31;12.87;101083.59;5034370;28;45451;-54
2022/08/22 09:50:12;;;;;;;;;2.20;2.00;;;;;50.41;13.89;101075.91;5034523;28;45376;-55
2022/08/22 09:52:56;;;;;;;;;4.00;1.20;;;;;50.93;12.29;101070.38;5034797;28;45515;-54
2022/08/22 09:56:01;;;;;;;;;5.40;2.40;;;;;51.69;12.02;101076.19;5034308;28;46167;-53
2022/08/22 09:59:08;;;;;;;;;0.80;0.60;;;;;52.45;11.61;101074.88;5034325;28;45377;-54
2022/08/22 10:01:52;;;;;;;;;2.00;1.00;;;;;52.50;10.99;101067.91;5051220;28;45425;-52
2022/08/22 10:04:30;;;;;;;;;1.00;0.40;;;;;52.79;10.72;101071.16;5034675;28;45584;-53
2022/08/22 10:07:31;;;;;;;;;1.40;1.40;;;;;52.69;11.89;101072.13;5034289;28;45385;-54
2022/08/22 10:10:34;;;;;;;;;4.20;1.20;;;;;53.03;11.39;101072.81;5053029;27;45444;-53
2022/08/22 10:13:34;;;;;;;;;0.50;0.25;;;;;52.41;11.84;101070.47;5014484;28;45452;-54
2022/08/22 10:16:05;;;;;;;;;3.20;0.20;;;;;51.24;11.75;101068.50;5014605;28;45539;-54
2022/08/22 10:18:40;;;;;;;;;4.60;2.80;;;;;50.44;12.36;101077.91;5013897;28;47438;-54
2022/08/22 10:21:30;;;;;;;;;2.40;1.20;;;;;50.58;13.62;101071.41;5014344;28;45394;-54
2022/08/22 10:24:30;;;;;;;;;1.20;1.00;;;;;51.70;11.22;101067.25;5014341;28;45456;-55
2022/08/22 10:27:05;;;;;;;;;2.00;2.00;;;;;51.04;12.45;101067.47;5014470;28;45492;-55
2022/08/22 10:29:50;;;;;;;;;4.60;2.60;;;;;51.12;12.37;101061.31;5013926;28;46997;-53
2022/08/22 10:32:52;;;;;;;;;3.20;1.80;;;;;49.51;12.47;101064.03;5014259;28;45336;-55
2022/08/22 10:35:38;;;;;;;;;4.00;2.00;;;;;47.23;14.27;101064.72;5014372;28;45372;-55
2022/08/22 10:38:23;;;;;;;;;5.20;3.00;;;;;46.51;15.32;101062.34;5014389;28;45468;-55
2022/08/22 10:41:16;;;;;;;;;1.60;0.60;;;;;47.18;14.93;101065.06;5016951;28;46892;-54
2022/08/22 10:43:51;;;;;;;;;3.20;2.00;;;;;46.97;15.09;101062.06;5055831;27;45461;-54
2022/08/22 10:46:33;;;;;;;;;4.20;1.60;;;;;47.41;15.03;101055.59;5100466;27;45328;-54
2022/08/22 10:49:02;;;;;;;;;1.60;1.60;;;;;47.91;14.21;101055.94;5100675;27;45423;-54
2022/08/22 10:51:39;;;;;;;;;2.20;1.80;;;;;48.47;13.90;101055.44;5100322;27;45412;-54
2022/08/22 10:54:32;;;;;;;;;2.00;2.00;;;;;49.17;13.42;101058.00;5100246;27;45326;-56
2022/08/22 10:57:06;;;;;;;;;1.60;1.60;;;;;48.80;13.76;101059.19;5100256;27;45346;-54
2022/08/22 10:59:43;;;;;;;;;1.80;1.80;;;;;48.35;13.22;101054.97;5100621;27;45407;-55
2022/08/22 11:02:21;;;;;;;;;3.80;2.40;;;;;47.39;14.24;101060.84;5099941;27;46805;-52
2022/08/22 11:05:15;;;;;;;;;2.00;1.20;;;;;44.83;16.45;101056.91;5100084;27;45218;-53
2022/08/22 11:07:48;;;;;;;;;2.00;1.00;;;;;42.38;18.06;101049.75;5100168;27;45241;-53
2022/08/22 11:10:33;;;;;;;;;2.40;2.40;;;;;41.14;19.16;101053.78;5100033;27;45275;-54
2022/08/22 11:13:12;;;;;;;;;2.20;2.20;;;;;42.57;18.01;101061.09;5099724;27;47082;-53
2022/08/22 11:15:41;;;;;;;;;4.60;3.00;;;;;43.78;17.12;101058.66;5099758;27;45318;-54
2022/08/22 11:18:29;;;;;;;;;1.00;1.00;;;;;44.81;16.83;101062.91;5100071;27;45472;-53
2022/08/22 11:21:27;;;;;;;;;1.80;1.80;;;;;44.61;16.62;101060.47;5100137;27;46178;-54
2022/08/22 11:24:38;;;;;;;;;2.60;1.60;;;;;42.45;18.05;101058.34;5099922;27;45345;-54
2022/08/22 11:27:19;;;;;;;;;3.20;2.20;;;;;43.56;17.54;101050.94;5083637;27;45465;-54
2022/08/22 11:29:55;;;;;;;;;0.80;0.60;;;;;43.40;17.47;101050.94;5099676;27;45260;-55
2022/08/22 11:32:44;;;;;;;;;1.40;1.00;;;;;44.38;17.07;101049.22;5099898;27;45376;-53
2022/08/22 11:35:23;;;;;;;;;1.60;1.60;;;;;43.83;17.43;101038.78;5099538;27;47119;-54
2022/08/22 11:38:07;;;;;;;;;3.60;2.00;;;;;41.35;19.39;101037.75;5099437;27;45383;-54
2022/08/22 11:40:36;;;;;;;;;3.80;3.80;;;;;39.75;21.16;101045.75;5099448;27;45366;-54
2022/08/22 11:43:20;;;;;;;;;2.60;2.60;;;;;40.49;20.76;101042.22;5099706;27;45408;-54
2022/08/22 11:45:50;;;;;;;;;1.60;1.20;;;;;41.08;19.93;101030.84;5099316;27;45535;-54
2022/08/22 11:48:18;;;;;;;;;3.00;1.00;;;;;39.91;20.97;101039.25;5099364;27;45376;-53
2022/08/22 11:50:50;;;;;;;;;2.00;2.00;;;;;38.16;22.34;101039.16;5098946;27;45573;-53
2022/08/22 11:53:31;;;;;;;;;3.20;2.00;;;;;36.80;24.39;101032.41;5099463;27;45235;-53
2022/08/22 11:56:19;;;;;;;;;2.00;2.00;;;;;35.31;24.89;101017.38;5098930;27;46697;-52
2022/08/22 11:58:50;;;;;;;;;2.00;1.20;;;;;34.35;26.50;101037.22;5098914;27;45420;-54
2022/08/22 12:01:22;;;;;;;;;2.00;1.00;;;;;33.77;28.15;101031.94;5099180;27;45459;-54
2022/08/22 12:04:05;;;;;;;;;3.40;2.20;;;;;33.24;28.90;101035.53;5099527;27;45253;-54
2022/08/22 12:06:42;;;;;;;;;2.60;2.60;;;;;33.01;29.10;101022.53;5099016;27;46204;-54
2022/08/22 12:09:15;;;;;;;;;1.00;1.00;;;;;32.83;29.30;101029.56;5098950;27;45291;-53
2022/08/22 12:11:55;;;;;;;;;3.60;1.20;;;;;32.42;29.54;101040.06;5098814;27;45452;-54
2022/08/22 12:14:39;;;;;;;;;1.20;1.20;;;;;31.98;30.97;101038.06;5099415;27;45425;-54
2022/08/22 12:17:32;;;;;;;;;2.20;2.20;;;;;31.58;31.52;101039.06;5099117;27;46126;-55
2022/08/22 12:20:00;;;;;;;;;2.00;1.80;;;;;31.19;31.99;101026.75;5098731;27;45441;-55
2022/08/22 12:22:56;;;;;;;;;3.00;3.00;;;;;31.02;33.01;101031.72;5097916;27;45406;-54
2022/08/22 12:25:44;;;;;;;;;3.60;2.80;;;;;30.91;32.93;101022.66;5099126;27;45399;-52
2022/08/22 12:28:27;;;;;;;;;3.80;2.60;;;;;31.09;33.90;101021.25;5098567;27;46100;-54
2022/08/22 12:31:11;;;;;;;;;2.20;2.20;;;;;31.41;33.27;101017.38;5098708;27;45343;-54
2022/08/22 12:33:54;;;;;;;;;2.60;2.60;;;;;31.60;32.80;101021.16;5098617;27;45315;-54